sensor_id;sensor_type;location;lat;lon;timestamp;pressure;altitude;pressure_sealevel;temperature;humidity
73016;BME280;61893;50.074;14.440;2022-09-09T00:00:19;98261.75;;;14.19;86.48
73016;BME280;61893;50.074;14.440;2022-09-09T00:03:12;98264.50;;;14.11;86.90
73016;BME280;61893;50.074;14.440;2022-09-09T00:08:19;98260.34;;;14.08;87.00
73016;BME280;61893;50.074;14.440;2022-09-09T00:10:51;98269.44;;;13.99;87.59
73016;BME280;61893;50.074;14.440;2022-09-09T00:13:48;98264.59;;;14.03;87.41
73016;BME280;61893;50.074;14.440;2022-09-09T00:16:25;98269.44;;;13.99;87.48
73016;BME280;61893;50.074;14.440;2022-09-09T00:21:27;98270.66;;;13.96;87.62
73016;BME280;61893;50.074;14.440;2022-09-09T00:23:57;98262.63;;;13.96;87.49
73016;BME280;61893;50.074;14.440;2022-09-09T00:29:10;98279.94;;;13.86;87.76
73016;BME280;61893;50.074;14.440;2022-09-09T00:31:40;98268.28;;;13.79;88.02
73016;BME280;61893;50.074;14.440;2022-09-09T00:34:11;98273.00;;;13.77;88.46
73016;BME280;61893;50.074;14.440;2022-09-09T00:36:39;98266.72;;;13.84;87.94
73016;BME280;61893;50.074;14.440;2022-09-09T00:39:05;98270.78;;;13.80;88.03
73016;BME280;61893;50.074;14.440;2022-09-09T00:44:08;98269.59;;;13.83;88.01
73016;BME280;61893;50.074;14.440;2022-09-09T00:46:59;98269.91;;;13.88;88.15
73016;BME280;61893;50.074;14.440;2022-09-09T00:52:39;98271.97;;;13.78;88.29
73016;BME280;61893;50.074;14.440;2022-09-09T00:55:20;98278.69;;;13.73;88.14
73016;BME280;61893;50.074;14.440;2022-09-09T00:57:51;98271.78;;;13.79;88.25
73016;BME280;61893;50.074;14.440;2022-09-09T01:05:47;98282.56;;;13.71;88.21
73016;BME280;61893;50.074;14.440;2022-09-09T01:11:47;98285.03;;;13.72;88.04
73016;BME280;61893;50.074;14.440;2022-09-09T01:16:47;98285.25;;;13.71;88.09
73016;BME280;61893;50.074;14.440;2022-09-09T01:19:33;98287.19;;;13.77;87.93
73016;BME280;61893;50.074;14.440;2022-09-09T01:27:41;98283.03;;;13.74;87.69
73016;BME280;61893;50.074;14.440;2022-09-09T01:30:14;98277.69;;;13.74;87.97
73016;BME280;61893;50.074;14.440;2022-09-09T01:32:44;98282.78;;;13.61;88.32
73016;BME280;61893;50.074;14.440;2022-09-09T01:35:17;98279.13;;;13.62;88.62
73016;BME280;61893;50.074;14.440;2022-09-09T01:37:49;98286.38;;;13.77;88.23
73016;BME280;61893;50.074;14.440;2022-09-09T01:40:15;98282.22;;;13.74;87.96
73016;BME280;61893;50.074;14.440;2022-09-09T01:42:41;98276.84;;;13.74;87.98
73016;BME280;61893;50.074;14.440;2022-09-09T01:45:07;98280.25;;;13.68;87.99
73016;BME280;61893;50.074;14.440;2022-09-09T01:47:34;98276.19;;;13.72;87.72
73016;BME280;61893;50.074;14.440;2022-09-09T01:50:00;98271.22;;;13.69;87.88
73016;BME280;61893;50.074;14.440;2022-09-09T01:52:27;98271.88;;;13.71;87.85
73016;BME280;61893;50.074;14.440;2022-09-09T01:54:52;98280.06;;;13.69;87.62
73016;BME280;61893;50.074;14.440;2022-09-09T01:57:31;98277.44;;;13.61;87.99
73016;BME280;61893;50.074;14.440;2022-09-09T02:00:08;98276.59;;;13.61;88.23
73016;BME280;61893;50.074;14.440;2022-09-09T02:05:25;98272.75;;;13.63;88.20
73016;BME280;61893;50.074;14.440;2022-09-09T02:11:05;98266.69;;;13.46;89.00
73016;BME280;61893;50.074;14.440;2022-09-09T02:13:35;98261.81;;;13.50;88.60
73016;BME280;61893;50.074;14.440;2022-09-09T02:19:08;98269.78;;;13.58;88.08
73016;BME280;61893;50.074;14.440;2022-09-09T02:21:39;98278.81;;;13.57;88.64
73016;BME280;61893;50.074;14.440;2022-09-09T02:24:08;98270.13;;;13.55;88.55
73016;BME280;61893;50.074;14.440;2022-09-09T02:26:39;98263.97;;;13.55;88.12
73016;BME280;61893;50.074;14.440;2022-09-09T02:29:13;98271.16;;;13.54;88.38
73016;BME280;61893;50.074;14.440;2022-09-09T02:31:41;98270.50;;;13.52;88.40
73016;BME280;61893;50.074;14.440;2022-09-09T02:34:09;98271.66;;;13.49;88.35
73016;BME280;61893;50.074;14.440;2022-09-09T02:36:37;98277.06;;;13.41;89.15
73016;BME280;61893;50.074;14.440;2022-09-09T02:39:07;98277.50;;;13.53;88.78
73016;BME280;61893;50.074;14.440;2022-09-09T02:41:37;98276.00;;;13.50;88.50
73016;BME280;61893;50.074;14.440;2022-09-09T02:44:08;98278.78;;;13.34;89.26
73016;BME280;61893;50.074;14.440;2022-09-09T02:49:44;98279.28;;;13.38;89.04
73016;BME280;61893;50.074;14.440;2022-09-09T02:52:19;98275.72;;;13.45;88.91
73016;BME280;61893;50.074;14.440;2022-09-09T02:54:47;98280.63;;;13.34;89.35
73016;BME280;61893;50.074;14.440;2022-09-09T02:57:27;98283.13;;;13.35;89.33
73016;BME280;61893;50.074;14.440;2022-09-09T02:59:57;98280.88;;;13.47;89.19
73016;BME280;61893;50.074;14.440;2022-09-09T03:02:26;98270.78;;;13.34;89.37
73016;BME280;61893;50.074;14.440;2022-09-09T03:04:52;98281.94;;;13.38;89.18
73016;BME280;61893;50.074;14.440;2022-09-09T03:07:19;98283.47;;;13.32;89.36
73016;BME280;61893;50.074;14.440;2022-09-09T03:09:45;98277.13;;;13.33;89.28
73016;BME280;61893;50.074;14.440;2022-09-09T03:12:16;98283.94;;;13.36;88.97
73016;BME280;61893;50.074;14.440;2022-09-09T03:14:42;98275.47;;;13.24;89.93
73016;BME280;61893;50.074;14.440;2022-09-09T03:17:10;98282.50;;;13.25;89.60
73016;BME280;61893;50.074;14.440;2022-09-09T03:19:37;98287.19;;;13.23;89.93
73016;BME280;61893;50.074;14.440;2022-09-09T03:22:03;98277.34;;;13.15;89.91
73016;BME280;61893;50.074;14.440;2022-09-09T03:24:30;98277.66;;;13.20;89.75
73016;BME280;61893;50.074;14.440;2022-09-09T03:26:55;98278.13;;;13.24;89.61
73016;BME280;61893;50.074;14.440;2022-09-09T03:29:21;98278.34;;;13.22;89.60
73016;BME280;61893;50.074;14.440;2022-09-09T03:31:47;98279.97;;;13.23;89.39
73016;BME280;61893;50.074;14.440;2022-09-09T03:34:16;98290.34;;;13.18;89.75
73016;BME280;61893;50.074;14.440;2022-09-09T03:36:41;98288.50;;;13.27;89.35
73016;BME280;61893;50.074;14.440;2022-09-09T03:39:08;98283.88;;;13.13;89.80
73016;BME280;61893;50.074;14.440;2022-09-09T03:41:33;98292.19;;;13.18;89.65
73016;BME280;61893;50.074;14.440;2022-09-09T03:43:59;98292.91;;;13.12;90.14
73016;BME280;61893;50.074;14.440;2022-09-09T03:46:25;98287.53;;;13.20;90.01
73016;BME280;61893;50.074;14.440;2022-09-09T03:48:51;98287.69;;;13.18;89.53
73016;BME280;61893;50.074;14.440;2022-09-09T03:51:20;98283.69;;;13.22;89.40
73016;BME280;61893;50.074;14.440;2022-09-09T03:53:47;98278.22;;;13.07;89.92
73016;BME280;61893;50.074;14.440;2022-09-09T03:56:13;98281.53;;;13.18;89.64
73016;BME280;61893;50.074;14.440;2022-09-09T03:58:40;98276.84;;;13.20;89.49
73016;BME280;61893;50.074;14.440;2022-09-09T04:01:08;98280.06;;;13.07;89.86
73016;BME280;61893;50.074;14.440;2022-09-09T04:03:34;98275.00;;;13.20;89.41
73016;BME280;61893;50.074;14.440;2022-09-09T04:06:03;98281.56;;;13.10;89.94
73016;BME280;61893;50.074;14.440;2022-09-09T04:08:30;98271.84;;;13.17;89.50
73016;BME280;61893;50.074;14.440;2022-09-09T04:10:59;98282.34;;;13.18;89.05
73016;BME280;61893;50.074;14.440;2022-09-09T04:13:27;98278.13;;;13.24;88.93
73016;BME280;61893;50.074;14.440;2022-09-09T04:15:58;98281.16;;;13.29;89.01
73016;BME280;61893;50.074;14.440;2022-09-09T04:18:25;98274.47;;;13.25;88.95
73016;BME280;61893;50.074;14.440;2022-09-09T04:20:52;98276.28;;;13.24;88.90
73016;BME280;61893;50.074;14.440;2022-09-09T04:23:18;98273.97;;;13.21;89.02
73016;BME280;61893;50.074;14.440;2022-09-09T04:25:47;98273.50;;;13.18;89.35
73016;BME280;61893;50.074;14.440;2022-09-09T04:28:14;98278.84;;;13.26;89.30
73016;BME280;61893;50.074;14.440;2022-09-09T04:30:41;98287.69;;;13.26;88.99
73016;BME280;61893;50.074;14.440;2022-09-09T04:33:10;98286.34;;;13.22;88.81
73016;BME280;61893;50.074;14.440;2022-09-09T04:35:37;98284.09;;;13.42;88.59
73016;BME280;61893;50.074;14.440;2022-09-09T04:38:07;98287.03;;;13.47;87.64
73016;BME280;61893;50.074;14.440;2022-09-09T04:40:35;98286.09;;;13.40;87.52
73016;BME280;61893;50.074;14.440;2022-09-09T04:43:02;98280.66;;;13.57;87.41
73016;BME280;61893;50.074;14.440;2022-09-09T04:45:31;98292.28;;;13.64;86.77
73016;BME280;61893;50.074;14.440;2022-09-09T04:47:57;98288.31;;;13.37;87.93
73016;BME280;61893;50.074;14.440;2022-09-09T04:50:22;98292.97;;;13.35;87.75
73016;BME280;61893;50.074;14.440;2022-09-09T04:52:51;98288.78;;;13.63;87.10
73016;BME280;61893;50.074;14.440;2022-09-09T04:55:17;98293.16;;;13.56;87.53
73016;BME280;61893;50.074;14.440;2022-09-09T04:57:43;98286.00;;;13.57;87.25
73016;BME280;61893;50.074;14.440;2022-09-09T05:00:09;98286.69;;;13.50;87.37
73016;BME280;61893;50.074;14.440;2022-09-09T05:02:39;98288.78;;;13.86;86.58
73016;BME280;61893;50.074;14.440;2022-09-09T05:05:06;98288.84;;;13.55;86.84
73016;BME280;61893;50.074;14.440;2022-09-09T05:07:35;98294.63;;;13.36;87.88
73016;BME280;61893;50.074;14.440;2022-09-09T05:10:01;98289.09;;;13.68;86.45
73016;BME280;61893;50.074;14.440;2022-09-09T05:12:30;98293.88;;;13.73;86.43
73016;BME280;61893;50.074;14.440;2022-09-09T05:15:07;98304.34;;;14.06;84.86
73016;BME280;61893;50.074;14.440;2022-09-09T05:17:33;98304.06;;;13.78;85.62
73016;BME280;61893;50.074;14.440;2022-09-09T05:19:59;98302.56;;;13.75;85.63
73016;BME280;61893;50.074;14.440;2022-09-09T05:22:27;98304.53;;;13.81;85.48
73016;BME280;61893;50.074;14.440;2022-09-09T05:25:32;98304.59;;;13.73;85.77
73016;BME280;61893;50.074;14.440;2022-09-09T05:28:04;98304.94;;;13.70;86.22
73016;BME280;61893;50.074;14.440;2022-09-09T05:31:08;98305.00;;;13.85;85.63
73016;BME280;61893;50.074;14.440;2022-09-09T05:34:09;98296.28;;;13.91;85.42
73016;BME280;61893;50.074;14.440;2022-09-09T05:36:53;98307.78;;;14.14;84.66
73016;BME280;61893;50.074;14.440;2022-09-09T05:39:34;98310.75;;;14.19;84.04
73016;BME280;61893;50.074;14.440;2022-09-09T05:42:20;98308.09;;;14.19;83.53
73016;BME280;61893;50.074;14.440;2022-09-09T05:44:46;98301.72;;;14.35;83.35
73016;BME280;61893;50.074;14.440;2022-09-09T05:47:20;98302.44;;;14.14;84.54
73016;BME280;61893;50.074;14.440;2022-09-09T05:50:06;98299.13;;;14.27;83.86
73016;BME280;61893;50.074;14.440;2022-09-09T05:52:46;98314.38;;;14.04;84.77
73016;BME280;61893;50.074;14.440;2022-09-09T05:56:38;98310.41;;;14.37;83.93
73016;BME280;61893;50.074;14.440;2022-09-09T05:59:15;98311.50;;;14.96;83.41
73016;BME280;61893;50.074;14.440;2022-09-09T06:01:45;98313.78;;;14.99;81.97
73016;BME280;61893;50.074;14.440;2022-09-09T06:04:33;98317.41;;;14.61;82.13
73016;BME280;61893;50.074;14.440;2022-09-09T06:07:05;98319.66;;;14.50;82.96
73016;BME280;61893;50.074;14.440;2022-09-09T06:09:48;98325.75;;;14.43;83.29
73016;BME280;61893;50.074;14.440;2022-09-09T06:12:30;98329.44;;;14.42;82.89
73016;BME280;61893;50.074;14.440;2022-09-09T06:15:16;98334.72;;;14.51;83.06
73016;BME280;61893;50.074;14.440;2022-09-09T06:18:00;98331.16;;;14.35;82.97
73016;BME280;61893;50.074;14.440;2022-09-09T06:20:58;98333.66;;;14.60;82.66
73016;BME280;61893;50.074;14.440;2022-09-09T06:23:39;98329.03;;;14.54;82.88
73016;BME280;61893;50.074;14.440;2022-09-09T06:26:19;98327.75;;;14.64;82.02
73016;BME280;61893;50.074;14.440;2022-09-09T06:28:48;98332.38;;;14.85;81.58
73016;BME280;61893;50.074;14.440;2022-09-09T06:31:23;98326.94;;;14.94;80.79
73016;BME280;61893;50.074;14.440;2022-09-09T06:34:25;98326.09;;;15.08;80.43
73016;BME280;61893;50.074;14.440;2022-09-09T06:37:30;98342.06;;;14.86;81.44
73016;BME280;61893;50.074;14.440;2022-09-09T06:40:05;98349.81;;;14.81;81.13
73016;BME280;61893;50.074;14.440;2022-09-09T06:42:51;98336.63;;;15.09;80.97
73016;BME280;61893;50.074;14.440;2022-09-09T06:45:20;98334.50;;;15.20;80.15
73016;BME280;61893;50.074;14.440;2022-09-09T06:47:55;98324.78;;;15.04;80.13
73016;BME280;61893;50.074;14.440;2022-09-09T06:50:45;98331.91;;;15.63;78.12
73016;BME280;61893;50.074;14.440;2022-09-09T06:54:15;98332.56;;;15.50;77.90
73016;BME280;61893;50.074;14.440;2022-09-09T06:57:43;98339.97;;;15.63;77.96
73016;BME280;61893;50.074;14.440;2022-09-09T07:00:40;98328.91;;;15.51;77.97
73016;BME280;61893;50.074;14.440;2022-09-09T07:03:52;98329.78;;;15.58;78.42
73016;BME280;61893;50.074;14.440;2022-09-09T07:06:42;98325.22;;;15.73;77.74
73016;BME280;61893;50.074;14.440;2022-09-09T07:09:49;98338.63;;;15.73;77.40
73016;BME280;61893;50.074;14.440;2022-09-09T07:12:42;98338.91;;;15.79;77.79
73016;BME280;61893;50.074;14.440;2022-09-09T07:15:17;98331.66;;;15.94;77.21
73016;BME280;61893;50.074;14.440;2022-09-09T07:18:09;98331.50;;;16.02;76.52
73016;BME280;61893;50.074;14.440;2022-09-09T07:20:36;98330.41;;;16.18;76.14
73016;BME280;61893;50.074;14.440;2022-09-09T07:23:05;98330.16;;;16.34;75.89
73016;BME280;61893;50.074;14.440;2022-09-09T07:26:02;98330.31;;;16.54;74.95
73016;BME280;61893;50.074;14.440;2022-09-09T07:28:34;98324.00;;;16.69;74.51
73016;BME280;61893;50.074;14.440;2022-09-09T07:31:08;98325.81;;;16.68;74.15
73016;BME280;61893;50.074;14.440;2022-09-09T07:33:48;98332.22;;;16.88;74.13
73016;BME280;61893;50.074;14.440;2022-09-09T07:36:16;98330.44;;;16.74;73.33
73016;BME280;61893;50.074;14.440;2022-09-09T07:38:47;98330.63;;;16.73;73.72
73016;BME280;61893;50.074;14.440;2022-09-09T07:41:25;98326.19;;;16.86;73.22
73016;BME280;61893;50.074;14.440;2022-09-09T07:43:58;98328.06;;;16.86;73.51
73016;BME280;61893;50.074;14.440;2022-09-09T07:47:46;98327.94;;;17.49;70.97
73016;BME280;61893;50.074;14.440;2022-09-09T07:55:11;98335.03;;;17.70;70.90
73016;BME280;61893;50.074;14.440;2022-09-09T07:58:18;98334.09;;;18.11;69.22
73016;BME280;61893;50.074;14.440;2022-09-09T08:01:06;98333.69;;;18.14;68.62
73016;BME280;61893;50.074;14.440;2022-09-09T08:03:59;98340.75;;;18.28;68.96
73016;BME280;61893;50.074;14.440;2022-09-09T08:06:51;98337.22;;;18.14;69.02
73016;BME280;61893;50.074;14.440;2022-09-09T08:09:27;98341.97;;;17.99;69.47
73016;BME280;61893;50.074;14.440;2022-09-09T08:11:55;98334.94;;;18.05;68.92
73016;BME280;61893;50.074;14.440;2022-09-09T08:14:30;98338.84;;;17.95;69.35
73016;BME280;61893;50.074;14.440;2022-09-09T08:17:08;98344.00;;;17.97;68.85
73016;BME280;61893;50.074;14.440;2022-09-09T08:19:36;98348.19;;;18.13;68.45
73016;BME280;61893;50.074;14.440;2022-09-09T08:22:03;98364.72;;;17.90;69.33
73016;BME280;61893;50.074;14.440;2022-09-09T08:24:40;98352.16;;;18.30;69.46
73016;BME280;61893;50.074;14.440;2022-09-09T08:27:10;98363.53;;;18.06;68.90
73016;BME280;61893;50.074;14.440;2022-09-09T08:29:42;98360.63;;;18.14;68.98
73016;BME280;61893;50.074;14.440;2022-09-09T08:32:19;98363.31;;;18.07;69.28
73016;BME280;61893;50.074;14.440;2022-09-09T08:35:07;98367.03;;;18.19;68.79
73016;BME280;61893;50.074;14.440;2022-09-09T08:37:33;98367.50;;;18.76;67.25
73016;BME280;61893;50.074;14.440;2022-09-09T08:40:26;98368.75;;;18.87;67.27
73016;BME280;61893;50.074;14.440;2022-09-09T08:43:33;98363.34;;;18.60;66.12
73016;BME280;61893;50.074;14.440;2022-09-09T08:46:33;98359.19;;;18.31;67.46
73016;BME280;61893;50.074;14.440;2022-09-09T08:55:50;98355.03;;;19.02;66.23
73016;BME280;61893;50.074;14.440;2022-09-09T08:58:24;98354.13;;;19.34;65.34
73016;BME280;61893;50.074;14.440;2022-09-09T09:12:25;98350.03;;;19.70;64.72
73016;BME280;61893;50.074;14.440;2022-09-09T09:14:59;98348.81;;;19.66;64.82
73016;BME280;61893;50.074;14.440;2022-09-09T09:17:28;98345.63;;;19.76;64.99
73016;BME280;61893;50.074;14.440;2022-09-09T09:20:12;98338.38;;;19.76;65.25
73016;BME280;61893;50.074;14.440;2022-09-09T09:22:53;98341.06;;;19.76;65.05
73016;BME280;61893;50.074;14.440;2022-09-09T09:28:40;98337.50;;;19.83;64.67
73016;BME280;61893;50.074;14.440;2022-09-09T09:31:10;98334.59;;;20.16;64.16
73016;BME280;61893;50.074;14.440;2022-09-09T09:33:56;98328.81;;;20.37;63.77
73016;BME280;61893;50.074;14.440;2022-09-09T09:36:45;98325.59;;;20.54;62.61
73016;BME280;61893;50.074;14.440;2022-09-09T09:39:27;98321.34;;;20.64;61.68
73016;BME280;61893;50.074;14.440;2022-09-09T09:42:13;98325.50;;;20.85;61.18
73016;BME280;61893;50.074;14.440;2022-09-09T09:48:27;98322.72;;;21.29;61.02
73016;BME280;61893;50.074;14.440;2022-09-09T09:51:05;98313.94;;;20.97;59.69
73016;BME280;61893;50.074;14.440;2022-09-09T09:53:41;98306.94;;;21.07;59.29
73016;BME280;61893;50.074;14.440;2022-09-09T09:56:10;98310.78;;;21.36;59.08
73016;BME280;61893;50.074;14.440;2022-09-09T10:01:32;98310.09;;;21.59;53.92
73016;BME280;61893;50.074;14.440;2022-09-09T10:04:16;98307.38;;;21.59;54.82
73016;BME280;61893;50.074;14.440;2022-09-09T10:06:42;98312.19;;;21.57;56.70
73016;BME280;61893;50.074;14.440;2022-09-09T10:09:29;98307.28;;;21.96;54.81
73016;BME280;61893;50.074;14.440;2022-09-09T10:19:35;98290.56;;;21.99;52.72
73016;BME280;61893;50.074;14.440;2022-09-09T10:22:52;98283.22;;;22.18;51.05
73016;BME280;61893;50.074;14.440;2022-09-09T10:26:01;98282.06;;;22.73;50.17
73016;BME280;61893;50.074;14.440;2022-09-09T10:29:05;98286.28;;;22.57;50.64
73016;BME280;61893;50.074;14.440;2022-09-09T10:32:09;98272.81;;;22.86;49.23
73016;BME280;61893;50.074;14.440;2022-09-09T10:35:34;98280.59;;;22.94;47.76
73016;BME280;61893;50.074;14.440;2022-09-09T10:39:34;98290.19;;;22.73;49.64
73016;BME280;61893;50.074;14.440;2022-09-09T10:42:54;98275.06;;;22.89;48.21
73016;BME280;61893;50.074;14.440;2022-09-09T10:50:15;98267.41;;;23.50;48.41
73016;BME280;61893;50.074;14.440;2022-09-09T10:56:12;98274.31;;;23.86;43.67
73016;BME280;61893;50.074;14.440;2022-09-09T10:59:36;98268.38;;;23.60;45.90
73016;BME280;61893;50.074;14.440;2022-09-09T11:02:36;98269.88;;;23.80;46.64
73016;BME280;61893;50.074;14.440;2022-09-09T11:05:20;98264.97;;;24.27;46.20
73016;BME280;61893;50.074;14.440;2022-09-09T11:08:29;98262.66;;;24.36;43.38
73016;BME280;61893;50.074;14.440;2022-09-09T11:17:14;98264.22;;;23.98;44.83
73016;BME280;61893;50.074;14.440;2022-09-09T11:20:23;98263.84;;;23.49;45.27
73016;BME280;61893;50.074;14.440;2022-09-09T11:23:53;98271.91;;;23.44;45.94
73016;BME280;61893;50.074;14.440;2022-09-09T11:26:46;98269.19;;;23.04;48.03
73016;BME280;61893;50.074;14.440;2022-09-09T11:29:38;98264.03;;;22.55;48.63
73016;BME280;61893;50.074;14.440;2022-09-09T11:38:50;98273.34;;;22.47;48.13
73016;BME280;61893;50.074;14.440;2022-09-09T11:41:19;98276.50;;;22.21;49.77
73016;BME280;61893;50.074;14.440;2022-09-09T11:43:51;98276.63;;;21.84;51.22
73016;BME280;61893;50.074;14.440;2022-09-09T11:46:33;98273.72;;;21.55;52.15
73016;BME280;61893;50.074;14.440;2022-09-09T11:49:05;98266.25;;;21.51;54.42
73016;BME280;61893;50.074;14.440;2022-09-09T11:51:33;98274.16;;;21.52;53.82
73016;BME280;61893;50.074;14.440;2022-09-09T11:54:04;98269.75;;;21.40;56.56
73016;BME280;61893;50.074;14.440;2022-09-09T11:56:51;98278.38;;;21.11;56.44
73016;BME280;61893;50.074;14.440;2022-09-09T11:59:33;98285.22;;;20.77;60.19
73016;BME280;61893;50.074;14.440;2022-09-09T12:02:22;98284.69;;;20.68;58.79
73016;BME280;61893;50.074;14.440;2022-09-09T12:05:09;98292.47;;;20.33;60.71
73016;BME280;61893;50.074;14.440;2022-09-09T12:07:46;98294.34;;;19.76;62.80
73016;BME280;61893;50.074;14.440;2022-09-09T12:10:35;98307.81;;;19.31;66.54
73016;BME280;61893;50.074;14.440;2022-09-09T12:13:21;98312.28;;;19.05;67.17
73016;BME280;61893;50.074;14.440;2022-09-09T12:15:59;98293.28;;;18.60;65.91
73016;BME280;61893;50.074;14.440;2022-09-09T12:21:17;98284.78;;;18.83;67.06
73016;BME280;61893;50.074;14.440;2022-09-09T12:23:52;98294.72;;;18.56;69.07
73016;BME280;61893;50.074;14.440;2022-09-09T12:27:02;98305.94;;;18.66;69.75
73016;BME280;61893;50.074;14.440;2022-09-09T12:30:15;98302.19;;;18.67;68.17
73016;BME280;61893;50.074;14.440;2022-09-09T12:32:26;98293.31;;;18.00;73.54
73016;BME280;61893;50.074;14.440;2022-09-09T12:34:57;98300.31;;;17.82;77.13
73016;BME280;61893;50.074;14.440;2022-09-09T12:37:38;98315.97;;;17.65;77.38
73016;BME280;61893;50.074;14.440;2022-09-09T12:40:22;98307.31;;;17.63;75.09
73016;BME280;61893;50.074;14.440;2022-09-09T12:42:48;98320.78;;;17.21;78.19
73016;BME280;61893;50.074;14.440;2022-09-09T12:48:00;98333.94;;;16.75;74.58
73016;BME280;61893;50.074;14.440;2022-09-09T12:50:31;98363.56;;;17.16;69.95
73016;BME280;61893;50.074;14.440;2022-09-09T12:53:01;98347.78;;;17.00;59.77
73016;BME280;61893;50.074;14.440;2022-09-09T12:55:30;98338.66;;;15.95;75.54
73016;BME280;61893;50.074;14.440;2022-09-09T12:57:57;98354.19;;;15.63;79.64
73016;BME280;61893;50.074;14.440;2022-09-09T13:00:25;98355.00;;;15.79;77.85
73016;BME280;61893;50.074;14.440;2022-09-09T13:02:59;98363.22;;;15.62;80.76
73016;BME280;61893;50.074;14.440;2022-09-09T13:05:37;98366.75;;;15.77;80.22
73016;BME280;61893;50.074;14.440;2022-09-09T13:08:06;98371.63;;;15.38;83.55
73016;BME280;61893;50.074;14.440;2022-09-09T13:10:40;98344.28;;;15.13;83.76
73016;BME280;61893;50.074;14.440;2022-09-09T13:13:27;98330.16;;;15.55;82.66
73016;BME280;61893;50.074;14.440;2022-09-09T13:15:57;98325.69;;;15.62;81.55
73016;BME280;61893;50.074;14.440;2022-09-09T13:18:37;98320.53;;;15.61;79.94
73016;BME280;61893;50.074;14.440;2022-09-09T13:21:06;98305.28;;;16.26;81.65
73016;BME280;61893;50.074;14.440;2022-09-09T13:23:34;98305.38;;;16.39;78.28
73016;BME280;61893;50.074;14.440;2022-09-09T13:26:04;98294.03;;;16.72;79.01
73016;BME280;61893;50.074;14.440;2022-09-09T13:28:34;98297.50;;;17.42;72.77
73016;BME280;61893;50.074;14.440;2022-09-09T13:31:23;98300.00;;;17.56;78.40
73016;BME280;61893;50.074;14.440;2022-09-09T13:33:55;98296.84;;;19.32;76.28
73016;BME280;61893;50.074;14.440;2022-09-09T13:36:30;98297.44;;;18.83;76.74
73016;BME280;61893;50.074;14.440;2022-09-09T13:38:58;98296.16;;;18.92;75.33
73016;BME280;61893;50.074;14.440;2022-09-09T13:41:42;98288.94;;;20.08;72.41
73016;BME280;61893;50.074;14.440;2022-09-09T13:44:46;98277.50;;;20.99;68.84
73016;BME280;61893;50.074;14.440;2022-09-09T13:47:17;98274.06;;;20.23;75.27
73016;BME280;61893;50.074;14.440;2022-09-09T13:49:49;98266.41;;;19.95;74.46
73016;BME280;61893;50.074;14.440;2022-09-09T13:52:16;98259.81;;;19.85;75.04
73016;BME280;61893;50.074;14.440;2022-09-09T13:54:51;98261.03;;;19.50;77.72
73016;BME280;61893;50.074;14.440;2022-09-09T13:57:24;98259.13;;;19.19;76.42
73016;BME280;61893;50.074;14.440;2022-09-09T14:00:10;98254.88;;;19.43;75.81
73016;BME280;61893;50.074;14.440;2022-09-09T14:02:39;98257.22;;;19.65;75.55
73016;BME280;61893;50.074;14.440;2022-09-09T14:05:10;98259.69;;;19.28;74.99
73016;BME280;61893;50.074;14.440;2022-09-09T14:07:38;98258.34;;;19.89;71.01
73016;BME280;61893;50.074;14.440;2022-09-09T14:10:26;98251.09;;;19.83;74.07
73016;BME280;61893;50.074;14.440;2022-09-09T14:13:04;98263.56;;;20.09;70.59
73016;BME280;61893;50.074;14.440;2022-09-09T14:15:30;98255.53;;;20.27;67.80
73016;BME280;61893;50.074;14.440;2022-09-09T14:17:55;98251.28;;;19.88;74.15
73016;BME280;61893;50.074;14.440;2022-09-09T14:20:21;98246.97;;;20.12;69.50
73016;BME280;61893;50.074;14.440;2022-09-09T14:22:53;98241.81;;;20.72;67.96
73016;BME280;61893;50.074;14.440;2022-09-09T14:25:23;98241.13;;;20.58;71.42
73016;BME280;61893;50.074;14.440;2022-09-09T14:27:49;98234.63;;;21.33;65.96
73016;BME280;61893;50.074;14.440;2022-09-09T14:30:30;98237.84;;;20.93;69.33
73016;BME280;61893;50.074;14.440;2022-09-09T14:33:15;98233.78;;;20.84;64.26
73016;BME280;61893;50.074;14.440;2022-09-09T14:36:02;98238.50;;;20.70;64.74
73016;BME280;61893;50.074;14.440;2022-09-09T14:38:30;98237.69;;;20.26;66.26
73016;BME280;61893;50.074;14.440;2022-09-09T14:41:17;98225.00;;;20.45;65.73
73016;BME280;61893;50.074;14.440;2022-09-09T14:43:46;98236.16;;;20.12;70.62
73016;BME280;61893;50.074;14.440;2022-09-09T14:46:15;98233.81;;;20.15;68.34
73016;BME280;61893;50.074;14.440;2022-09-09T14:48:50;98219.44;;;20.21;70.57
73016;BME280;61893;50.074;14.440;2022-09-09T14:51:19;98230.22;;;20.21;70.37
73016;BME280;61893;50.074;14.440;2022-09-09T14:53:46;98225.28;;;20.18;69.42
73016;BME280;61893;50.074;14.440;2022-09-09T14:56:15;98229.34;;;20.02;68.61
73016;BME280;61893;50.074;14.440;2022-09-09T14:58:42;98228.34;;;20.22;68.96
73016;BME280;61893;50.074;14.440;2022-09-09T15:01:26;98224.63;;;21.03;66.37
73016;BME280;61893;50.074;14.440;2022-09-09T15:03:56;98220.84;;;21.04;67.88
73016;BME280;61893;50.074;14.440;2022-09-09T15:06:32;98220.72;;;21.90;67.58
73016;BME280;61893;50.074;14.440;2022-09-09T15:09:02;98213.41;;;22.14;64.57
73016;BME280;61893;50.074;14.440;2022-09-09T15:11:34;98211.75;;;21.29;65.07
73016;BME280;61893;50.074;14.440;2022-09-09T15:14:07;98215.38;;;20.92;67.47
73016;BME280;61893;50.074;14.440;2022-09-09T15:16:34;98214.88;;;20.84;66.85
73016;BME280;61893;50.074;14.440;2022-09-09T15:19:01;98215.16;;;20.76;62.90
73016;BME280;61893;50.074;14.440;2022-09-09T15:21:29;98211.41;;;20.58;64.55
73016;BME280;61893;50.074;14.440;2022-09-09T15:23:56;98208.91;;;20.57;62.94
73016;BME280;61893;50.074;14.440;2022-09-09T15:26:23;98207.31;;;20.49;64.84
73016;BME280;61893;50.074;14.440;2022-09-09T15:28:51;98214.09;;;20.58;66.25
73016;BME280;61893;50.074;14.440;2022-09-09T15:31:20;98213.16;;;21.20;60.06